createdAt,value
2022-08-20T00:00:29.940Z,98271.38
2022-08-20T00:02:58.718Z,98273.19
2022-08-20T00:05:33.923Z,98272.19
2022-08-20T00:08:00.959Z,98271.97
2022-08-20T00:10:34.963Z,98277.97
2022-08-20T00:13:01.924Z,98286.91
2022-08-20T00:15:35.895Z,98285.84
2022-08-20T00:18:09.135Z,98284.63
2022-08-20T00:20:47.879Z,98293.09
2022-08-20T00:23:14.942Z,98296.41
2022-08-20T00:25:48.949Z,98289.41
2022-08-20T00:28:15.755Z,98305.97
2022-08-20T00:30:43.301Z,98309.28
2022-08-20T00:33:17.876Z,98306.81
2022-08-20T00:35:53.863Z,98297.91
2022-08-20T00:38:26.891Z,98301.22
2022-08-20T00:41:01.907Z,98303.69
2022-08-20T00:43:31.260Z,98306.19
2022-08-20T00:46:05.912Z,98303.09
2022-08-20T00:48:34.620Z,98300.41
2022-08-20T00:51:18.883Z,98305.41
2022-08-20T00:53:45.617Z,98290.94
2022-08-20T00:56:18.909Z,98295.91
2022-08-20T00:58:45.978Z,98301.47
2022-08-20T01:01:13.405Z,98296.72
2022-08-20T01:03:48.881Z,98289.47
2022-08-20T01:06:15.430Z,98296.72
2022-08-20T01:08:49.891Z,98304.59
2022-08-20T01:11:17.808Z,98303.53
2022-08-20T01:13:52.032Z,98302.91
2022-08-20T01:16:33.883Z,98295.91
2022-08-20T01:19:30.111Z,98289.69
2022-08-20T01:22:04.885Z,98289.06
2022-08-20T01:24:42.866Z,98285.53
2022-08-20T01:27:16.044Z,98277.69
2022-08-20T01:29:48.872Z,98275.00
2022-08-20T01:32:15.420Z,98268.78
2022-08-20T01:34:48.878Z,98271.72
2022-08-20T01:37:15.484Z,98268.41
2022-08-20T01:39:48.859Z,98271.72
2022-08-20T01:42:27.571Z,98270.25
2022-08-20T01:45:01.903Z,98275.63
2022-08-20T01:47:36.397Z,98278.72
2022-08-20T01:50:21.872Z,98269.81
2022-08-20T01:53:10.857Z,98256.19
2022-08-20T01:55:38.186Z,98261.13
2022-08-20T01:58:04.911Z,98261.53
2022-08-20T02:00:38.842Z,98260.66
2022-08-20T02:03:05.533Z,98262.69
2022-08-20T02:05:39.853Z,98236.81
2022-08-20T02:08:06.365Z,98244.13
2022-08-20T02:10:54.890Z,98234.19
2022-08-20T02:13:28.201Z,98235.41
2022-08-20T02:16:01.871Z,98221.75
2022-08-20T02:18:34.964Z,98233.75
2022-08-20T02:21:08.875Z,98239.56
2022-08-20T02:23:35.436Z,98238.34
2022-08-20T02:26:08.854Z,98245.78
2022-08-20T02:28:35.491Z,98235.78
2022-08-20T02:31:09.859Z,98241.97
2022-08-20T02:33:36.455Z,98235.75
2022-08-20T02:36:06.713Z,98236.34
2022-08-20T02:38:41.880Z,98229.09
2022-08-20T02:41:08.890Z,98215.03
2022-08-20T02:43:41.847Z,98208.84
2022-08-20T02:46:14.865Z,98204.47
2022-08-20T02:48:42.100Z,98209.63
2022-08-20T02:51:14.860Z,98204.53
2022-08-20T02:53:50.867Z,98191.59
2022-08-20T02:56:17.621Z,98184.56
2022-08-20T02:58:50.845Z,98181.09
2022-08-20T03:01:17.951Z,98184.19
2022-08-20T03:03:51.864Z,98180.84
2022-08-20T03:06:18.477Z,98193.97
2022-08-20T03:08:51.853Z,98188.59
2022-08-20T03:11:19.072Z,98195.22
2022-08-20T03:13:51.863Z,98189.00
2022-08-20T03:16:38.836Z,98193.97
2022-08-20T03:19:11.829Z,98182.59
2022-08-20T03:21:38.300Z,98179.25
2022-08-20T03:24:11.832Z,98189.38
2022-08-20T03:26:44.878Z,98180.13
2022-08-20T03:29:18.852Z,98178.97
2022-08-20T03:31:45.426Z,98182.06
2022-08-20T03:34:18.875Z,98192.84
2022-08-20T03:36:45.440Z,98199.06
2022-08-20T03:39:19.844Z,98203.25
2022-08-20T03:41:46.481Z,98204.88
2022-08-20T03:44:19.829Z,98222.88
2022-08-20T03:46:46.356Z,98231.25
2022-08-20T03:49:19.846Z,98242.59
2022-08-20T03:51:58.198Z,98258.72
2022-08-20T03:54:32.153Z,98260.00
2022-08-20T03:56:59.655Z,98266.59
2022-08-20T03:59:33.847Z,98266.59
2022-08-20T04:02:00.571Z,98267.84
2022-08-20T04:04:33.841Z,98282.09
2022-08-20T04:07:06.844Z,98287.28
2022-08-20T04:09:39.863Z,98286.66
2022-08-20T04:12:13.843Z,98299.03
2022-08-20T04:14:46.857Z,98305.84
2022-08-20T04:17:33.835Z,98300.84
2022-08-20T04:20:02.439Z,98312.38
2022-08-20T04:22:28.968Z,98312.56
2022-08-20T04:25:01.852Z,98309.50
2022-08-20T04:27:28.863Z,98314.25
2022-08-20T04:30:01.858Z,98317.28
2022-08-20T04:32:28.426Z,98311.94
2022-08-20T04:35:01.838Z,98316.53
2022-08-20T04:37:28.371Z,98317.78
2022-08-20T04:40:19.987Z,98322.69
2022-08-20T04:42:46.536Z,98325.56
2022-08-20T04:45:24.997Z,98322.03
2022-08-20T04:47:51.987Z,98326.38
2022-08-20T04:50:26.859Z,98330.50
2022-08-20T04:52:53.349Z,98323.28
2022-08-20T04:55:26.832Z,98331.72
2022-08-20T04:57:54.776Z,98336.09
2022-08-20T05:00:27.841Z,98333.63
2022-08-20T05:02:54.355Z,98332.03
2022-08-20T05:05:28.837Z,98344.53
2022-08-20T05:07:55.686Z,98331.78
2022-08-20T05:10:23.654Z,98347.84
2022-08-20T05:12:57.411Z,98340.59
2022-08-20T05:15:26.993Z,98346.59
2022-08-20T05:18:08.850Z,98349.03
2022-08-20T05:20:48.948Z,98351.91
2022-08-20T05:23:22.858Z,98348.84
2022-08-20T05:25:52.956Z,98350.66
2022-08-20T05:28:30.814Z,98349.81
2022-08-20T05:30:57.369Z,98346.91
2022-08-20T05:33:31.626Z,98341.38
2022-08-20T05:35:58.800Z,98336.25
2022-08-20T05:38:34.840Z,98332.50
2022-08-20T05:41:07.806Z,98332.72
2022-08-20T05:43:34.334Z,98325.94
2022-08-20T05:46:07.998Z,98329.44
2022-08-20T05:48:35.487Z,98331.09
2022-08-20T05:51:12.102Z,98328.41
2022-08-20T05:53:47.823Z,98337.25
2022-08-20T05:56:14.351Z,98329.25
2022-08-20T05:58:47.837Z,98346.97
2022-08-20T06:01:17.930Z,98350.66
2022-08-20T06:04:09.835Z,98367.56
2022-08-20T06:06:44.917Z,98371.31
2022-08-20T06:09:28.704Z,98376.50
2022-08-20T06:12:01.912Z,98367.41
2022-08-20T06:14:34.815Z,98363.31
2022-08-20T06:17:22.818Z,98355.91
2022-08-20T06:19:56.808Z,98355.84
2022-08-20T06:22:26.902Z,98366.41
2022-08-20T06:25:01.897Z,98354.03
2022-08-20T06:27:29.863Z,98354.47
2022-08-20T06:30:03.882Z,98353.22
2022-08-20T06:32:33.041Z,98349.72
2022-08-20T06:35:08.818Z,98342.47
2022-08-20T06:37:36.840Z,98335.88
2022-08-20T06:40:17.851Z,98336.69
2022-08-20T06:42:48.501Z,98346.78
2022-08-20T06:45:30.886Z,98349.09
2022-08-20T06:47:59.559Z,98356.09
2022-08-20T06:50:37.822Z,98356.13
2022-08-20T06:53:04.860Z,98348.28
2022-08-20T06:55:39.827Z,98350.16
2022-08-20T06:58:15.619Z,98357.34
2022-08-20T07:01:09.606Z,98367.88
2022-08-20T07:03:38.416Z,98373.91
2022-08-20T07:06:12.948Z,98376.97
2022-08-20T07:08:40.394Z,98374.72
2022-08-20T07:11:13.801Z,98376.00
2022-08-20T07:13:41.500Z,98374.34
2022-08-20T07:16:21.809Z,98374.31
2022-08-20T07:18:48.402Z,98373.28
2022-08-20T07:21:17.442Z,98393.94
2022-08-20T07:23:50.868Z,98386.75
2022-08-20T07:26:17.748Z,98390.22
2022-08-20T07:28:50.893Z,98383.59
2022-08-20T07:31:39.745Z,98381.97
2022-08-20T07:34:17.821Z,98381.16
2022-08-20T07:36:48.448Z,98383.41
2022-08-20T07:39:21.801Z,98381.78
2022-08-20T07:42:03.016Z,98387.84
2022-08-20T07:44:36.808Z,98385.78
2022-08-20T07:47:04.755Z,98380.41
2022-08-20T07:49:37.872Z,98392.59
2022-08-20T07:52:11.800Z,98390.13
2022-08-20T07:54:39.390Z,98392.00
2022-08-20T07:57:12.812Z,98380.00
2022-08-20T07:59:45.833Z,98373.84
2022-08-20T08:02:19.853Z,98378.78
2022-08-20T08:04:52.781Z,98370.75
2022-08-20T08:07:19.562Z,98366.59
2022-08-20T08:09:52.815Z,98376.94
2022-08-20T08:12:19.517Z,98364.13
2022-08-20T08:14:53.813Z,98378.81
2022-08-20T08:17:26.916Z,98364.13
2022-08-20T08:20:06.801Z,98370.72
2022-08-20T08:22:39.889Z,98368.25
2022-08-20T08:25:06.592Z,98367.03
2022-08-20T08:27:40.971Z,98383.56
2022-08-20T08:30:08.929Z,98377.34
2022-08-20T08:33:04.820Z,98376.09
2022-08-20T08:35:34.305Z,98379.22
2022-08-20T08:38:08.771Z,98383.34
2022-08-20T08:40:41.863Z,98381.69
2022-08-20T08:43:21.163Z,98388.25
2022-08-20T08:45:54.709Z,98384.34
2022-08-20T08:48:27.991Z,98398.38
2022-08-20T08:51:04.918Z,98384.13
2022-08-20T08:53:40.828Z,98388.09
2022-08-20T08:56:07.832Z,98375.72
2022-08-20T08:58:41.790Z,98390.19
2022-08-20T09:01:53.114Z,98390.78
2022-08-20T09:04:02.776Z,98385.22
2022-08-20T09:06:29.471Z,98395.13
2022-08-20T09:09:03.932Z,98387.91
2022-08-20T09:11:31.441Z,98391.84
2022-08-20T09:14:04.785Z,98384.00
2022-08-20T09:16:45.774Z,98392.25
2022-08-20T09:19:32.827Z,98402.59
2022-08-20T09:21:59.398Z,98398.06
2022-08-20T09:24:32.943Z,98390.63
2022-08-20T09:27:05.790Z,98392.69
2022-08-20T09:29:33.082Z,98390.19
2022-08-20T09:32:26.181Z,98392.47
2022-08-20T09:34:56.479Z,98410.44
2022-08-20T09:37:37.515Z,98408.00
2022-08-20T09:40:05.222Z,98428.03
2022-08-20T09:42:41.679Z,98440.22
2022-08-20T09:45:11.185Z,98443.50
2022-08-20T09:47:56.063Z,98457.72
2022-08-20T09:50:24.443Z,98465.38
2022-08-20T09:52:58.812Z,98470.69
2022-08-20T09:55:28.400Z,98469.81
2022-08-20T09:58:01.847Z,98474.91
2022-08-20T10:00:28.442Z,98471.47
2022-08-20T10:03:01.810Z,98479.66
2022-08-20T10:05:34.855Z,98480.84
2022-08-20T10:08:10.789Z,98486.59
2022-08-20T10:10:43.837Z,98496.50
2022-08-20T10:13:16.778Z,98497.88
2022-08-20T10:15:44.494Z,98498.31
2022-08-20T10:18:17.865Z,98496.66
2022-08-20T10:20:51.073Z,98498.91
2022-08-20T10:23:23.799Z,98498.06
2022-08-20T10:25:50.425Z,98503.84
2022-08-20T10:28:23.796Z,98503.44
2022-08-20T10:30:50.518Z,98498.84
2022-08-20T10:33:23.768Z,98510.63
2022-08-20T10:35:50.353Z,98514.91
2022-08-20T10:38:23.781Z,98506.28
2022-08-20T10:40:52.561Z,98513.06
2022-08-20T10:43:25.799Z,98518.03
2022-08-20T10:45:58.796Z,98517.00
2022-08-20T10:48:25.676Z,98508.75
2022-08-20T10:50:58.964Z,98513.75
2022-08-20T10:53:31.961Z,98515.00
2022-08-20T10:55:58.511Z,98518.31
2022-08-20T10:58:26.164Z,98522.66
2022-08-20T11:01:10.817Z,98524.13
2022-08-20T11:03:43.974Z,98518.97
2022-08-20T11:06:17.000Z,98512.97
2022-08-20T11:08:49.810Z,98503.38
2022-08-20T11:11:19.401Z,98512.44
2022-08-20T11:13:52.859Z,98499.88
2022-08-20T11:16:19.484Z,98503.63
2022-08-20T11:18:59.794Z,98513.31
2022-08-20T11:21:35.870Z,98518.34
2022-08-20T11:24:03.182Z,98516.53
2022-08-20T11:26:36.754Z,98514.47
2022-08-20T11:29:09.773Z,98525.63
2022-08-20T11:31:42.784Z,98521.09
2022-08-20T11:34:15.785Z,98504.97
2022-08-20T11:36:49.805Z,98505.41
2022-08-20T11:39:16.425Z,98504.78
2022-08-20T11:41:45.810Z,98504.16
2022-08-20T11:44:20.975Z,98508.28
2022-08-20T11:46:48.246Z,98501.63
2022-08-20T11:49:21.771Z,98508.66
2022-08-20T11:51:49.668Z,98510.31
2022-08-20T11:54:23.799Z,98512.84
2022-08-20T11:56:57.750Z,98513.03
2022-08-20T11:59:30.764Z,98518.63
2022-08-20T12:02:06.127Z,98520.66
2022-08-20T12:04:41.932Z,98525.19
2022-08-20T12:07:16.752Z,98523.97
2022-08-20T12:09:51.162Z,98529.34
2022-08-20T12:12:25.761Z,98531.63
2022-08-20T12:14:59.782Z,98537.63
2022-08-20T12:17:46.932Z,98534.34
2022-08-20T12:20:14.073Z,98539.06
2022-08-20T12:22:47.793Z,98531.81
2022-08-20T12:25:20.826Z,98534.13
2022-08-20T12:27:53.765Z,98521.97
2022-08-20T12:30:27.749Z,98527.19
2022-08-20T12:33:00.814Z,98519.94
2022-08-20T12:35:27.325Z,98517.72
2022-08-20T12:38:00.922Z,98511.72
2022-08-20T12:40:34.826Z,98517.53
2022-08-20T12:43:08.830Z,98519.81
2022-08-20T12:45:36.115Z,98500.00
2022-08-20T12:48:14.750Z,98501.44
2022-08-20T12:50:48.726Z,98508.50
2022-08-20T12:53:15.525Z,98501.09
2022-08-20T12:55:48.919Z,98486.19
2022-08-20T12:58:15.525Z,98495.72
2022-08-20T13:00:51.474Z,98478.31
2022-08-20T13:03:18.544Z,98472.75
2022-08-20T13:05:51.971Z,98455.56
2022-08-20T13:08:19.453Z,98462.19
2022-08-20T13:10:52.735Z,98462.41
2022-08-20T13:13:20.368Z,98471.72
2022-08-20T13:15:54.944Z,98485.34
2022-08-20T13:18:28.046Z,98466.31
2022-08-20T13:21:00.752Z,98472.75
2022-08-20T13:23:33.747Z,98477.06
2022-08-20T13:26:00.337Z,98460.28
2022-08-20T13:28:33.755Z,98460.50
2022-08-20T13:31:08.749Z,98463.00
2022-08-20T13:33:35.533Z,98461.97
2022-08-20T13:36:08.738Z,98451.41
2022-08-20T13:38:35.259Z,98455.56
2022-08-20T13:41:08.739Z,98461.34
2022-08-20T13:43:35.279Z,98466.53
2022-08-20T13:46:08.733Z,98471.28
2022-08-20T13:48:35.458Z,98473.38
2022-08-20T13:51:08.757Z,98464.44
2022-08-20T13:53:35.513Z,98468.78
2022-08-20T13:56:08.742Z,98462.16
2022-08-20T13:58:35.310Z,98467.13
2022-08-20T14:01:08.756Z,98465.09
2022-08-20T14:03:35.491Z,98460.94
2022-08-20T14:06:09.741Z,98462.16
2022-08-20T14:08:36.556Z,98454.94
2022-08-20T14:11:09.979Z,98454.31
2022-08-20T14:13:42.177Z,98462.59
2022-08-20T14:16:21.197Z,98468.19
2022-08-20T14:19:01.291Z,98455.16
2022-08-20T14:21:34.713Z,98463.00
2022-08-20T14:24:02.032Z,98476.47
2022-08-20T14:26:34.823Z,98472.75
2022-08-20T14:29:01.594Z,98474.56
2022-08-20T14:31:34.733Z,98480.81
2022-08-20T14:34:07.766Z,98500.06
2022-08-20T14:36:34.294Z,98504.19
2022-08-20T14:39:07.787Z,98525.50
2022-08-20T14:41:40.753Z,98527.56
2022-08-20T14:44:13.725Z,98529.41
2022-08-20T14:46:46.728Z,98527.78
2022-08-20T14:49:19.756Z,98539.16
2022-08-20T14:51:46.342Z,98543.44
2022-08-20T14:54:19.733Z,98536.81
2022-08-20T14:56:46.473Z,98547.38
2022-08-20T14:59:19.769Z,98533.28
2022-08-20T15:01:46.360Z,98538.25
2022-08-20T15:04:19.721Z,98537.00
2022-08-20T15:06:46.903Z,98544.84
2022-08-20T15:09:20.756Z,98540.09
2022-08-20T15:11:47.340Z,98549.16
2022-08-20T15:14:20.898Z,98559.91
2022-08-20T15:16:47.464Z,98550.63
2022-08-20T15:19:27.716Z,98550.84
2022-08-20T15:22:00.858Z,98554.38
2022-08-20T15:24:33.728Z,98548.56
2022-08-20T15:27:09.780Z,98540.31
2022-08-20T15:29:42.789Z,98544.44
2022-08-20T15:32:09.458Z,98510.91
2022-08-20T15:34:43.713Z,98471.63
2022-08-20T15:37:14.663Z,98487.72
2022-08-20T15:39:48.769Z,98474.06
2022-08-20T15:42:15.899Z,98492.66
2022-08-20T15:44:43.184Z,98503.41
2022-08-20T15:47:36.712Z,98478.38
2022-08-20T15:50:24.726Z,98488.28
2022-08-20T15:52:51.401Z,98487.59
2022-08-20T15:55:24.728Z,98494.59
2022-08-20T15:58:08.202Z,98502.38
2022-08-20T16:00:52.909Z,98498.69
2022-08-20T16:03:37.604Z,98506.13
2022-08-20T16:06:21.694Z,98504.09
2022-08-20T16:09:13.738Z,98486.34
2022-08-20T16:11:53.485Z,98508.84
2022-08-20T16:14:28.713Z,98507.75
2022-08-20T16:17:09.719Z,98512.13
2022-08-20T16:19:52.752Z,98515.38
2022-08-20T16:22:26.736Z,98523.25
2022-08-20T16:24:53.377Z,98517.63
2022-08-20T16:27:26.776Z,98518.16
2022-08-20T16:29:59.414Z,98523.69
2022-08-20T16:32:49.715Z,98529.31
2022-08-20T16:35:16.345Z,98536.31
2022-08-20T16:37:53.736Z,98526.88
2022-08-20T16:40:34.726Z,98533.13
2022-08-20T16:43:03.790Z,98530.19
2022-08-20T16:45:45.576Z,98531.22
2022-08-20T16:48:18.516Z,98536.19
2022-08-20T16:50:57.708Z,98543.00
2022-08-20T16:53:25.726Z,98547.94
2022-08-20T16:55:59.737Z,98547.31
2022-08-20T16:58:26.532Z,98547.56
2022-08-20T17:01:11.743Z,98542.63
2022-08-20T17:03:40.068Z,98550.06
2022-08-20T17:06:20.724Z,98549.69
2022-08-20T17:08:55.092Z,98551.97
2022-08-20T17:11:38.691Z,98565.41
2022-08-20T17:14:16.550Z,98560.38
2022-08-20T17:16:51.733Z,98567.16
2022-08-20T17:19:37.863Z,98568.00
2022-08-20T17:22:18.703Z,98572.94
2022-08-20T17:24:45.377Z,98577.66
2022-08-20T17:27:22.902Z,98566.50
2022-08-20T17:30:00.704Z,98585.47
2022-08-20T17:32:29.420Z,98583.66
2022-08-20T17:35:03.727Z,98589.44
2022-08-20T17:37:33.401Z,98595.34
2022-08-20T17:40:12.780Z,98604.41
2022-08-20T17:42:51.300Z,98607.88
2022-08-20T17:45:33.713Z,98608.91
2022-08-20T17:48:00.502Z,98617.19
2022-08-20T17:50:39.699Z,98626.88
2022-08-20T17:53:10.910Z,98628.88
2022-08-20T17:55:44.705Z,98622.44
2022-08-20T17:58:12.646Z,98627.03
2022-08-20T18:00:46.707Z,98628.47
2022-08-20T18:03:19.513Z,98630.16
2022-08-20T18:05:56.717Z,98628.72
2022-08-20T18:08:55.787Z,98626.63
2022-08-20T18:11:32.700Z,98638.59
2022-08-20T18:14:24.737Z,98635.22
2022-08-20T18:16:51.343Z,98637.66
2022-08-20T18:19:40.726Z,98638.47
2022-08-20T18:22:16.619Z,98640.34
2022-08-20T18:25:04.689Z,98645.44
2022-08-20T18:27:36.785Z,98650.47
2022-08-20T18:30:10.847Z,98648.75
2022-08-20T18:32:38.367Z,98642.09
2022-08-20T18:35:19.687Z,98639.78
2022-08-20T18:37:46.918Z,98651.09
2022-08-20T18:40:33.749Z,98652.28
2022-08-20T18:43:17.671Z,98657.72
2022-08-20T18:45:50.769Z,98651.91
2022-08-20T18:48:21.985Z,98657.84
2022-08-20T18:50:59.852Z,98656.25
2022-08-20T18:53:33.658Z,98658.06
2022-08-20T18:56:09.687Z,98654.75
2022-08-20T18:59:05.842Z,98656.34
2022-08-20T19:01:35.243Z,98654.94
2022-08-20T19:04:09.778Z,98654.84
2022-08-20T19:06:41.217Z,98653.56
2022-08-20T19:09:17.688Z,98654.97
2022-08-20T19:12:00.676Z,98649.34
2022-08-20T19:14:52.888Z,98653.06
2022-08-20T19:17:42.951Z,98653.75
2022-08-20T19:20:25.690Z,98652.28
2022-08-20T19:22:53.972Z,98650.38
2022-08-20T19:25:32.668Z,98647.13
2022-08-20T19:28:07.660Z,98649.63
2022-08-20T19:30:36.913Z,98648.16
2022-08-20T19:33:10.664Z,98650.88
2022-08-20T19:35:37.807Z,98642.66
2022-08-20T19:38:12.673Z,98638.88
2022-08-20T19:40:40.156Z,98640.13
2022-08-20T19:43:24.726Z,98638.38
2022-08-20T19:46:00.694Z,98640.78
2022-08-20T19:48:27.756Z,98636.72
2022-08-20T19:51:27.767Z,98631.06
2022-08-20T19:53:54.559Z,98632.56
2022-08-20T19:56:29.736Z,98627.41
2022-08-20T19:59:07.701Z,98627.56
2022-08-20T20:01:42.759Z,98627.56
2022-08-20T20:04:15.049Z,98628.63
2022-08-20T20:06:49.693Z,98627.41
2022-08-20T20:09:31.763Z,98636.66
2022-08-20T20:11:59.872Z,98635.19
2022-08-20T20:14:37.936Z,98640.56
2022-08-20T20:17:14.970Z,98645.03
2022-08-20T20:19:59.194Z,98639.22
2022-08-20T20:22:39.749Z,98635.38
2022-08-20T20:25:18.166Z,98639.34
2022-08-20T20:28:02.821Z,98640.44
2022-08-20T20:30:31.006Z,98642.72
2022-08-20T20:33:05.776Z,98643.38
2022-08-20T20:35:40.680Z,98639.16
2022-08-20T20:38:08.890Z,98640.63
2022-08-20T20:40:53.729Z,98639.34
2022-08-20T20:43:29.637Z,98646.94
2022-08-20T20:46:05.705Z,98650.44
2022-08-20T20:48:42.040Z,98642.66
2022-08-20T20:51:35.805Z,98657.53
2022-08-20T20:54:04.608Z,98650.97
2022-08-20T20:56:48.751Z,98652.56
2022-08-20T20:59:21.892Z,98648.78
2022-08-20T21:01:50.560Z,98649.81
2022-08-20T21:04:27.657Z,98652.13
2022-08-20T21:07:01.680Z,98650.88
2022-08-20T21:09:28.479Z,98654.22
2022-08-20T21:12:01.697Z,98649.88
2022-08-20T21:14:28.311Z,98652.75
2022-08-20T21:17:02.869Z,98653.13
2022-08-20T21:19:44.872Z,98653.69
2022-08-20T21:22:26.761Z,98656.50
2022-08-20T21:25:00.682Z,98660.16
2022-08-20T21:27:27.808Z,98656.69
2022-08-20T21:30:01.809Z,98656.34
2022-08-20T21:32:34.681Z,98658.28
2022-08-20T21:35:01.473Z,98665.56
2022-08-20T21:37:34.769Z,98658.94
2022-08-20T21:40:07.939Z,98661.03
2022-08-20T21:42:41.658Z,98654.84
2022-08-20T21:45:22.766Z,98660.78
2022-08-20T21:48:02.680Z,98662.75
2022-08-20T21:50:35.645Z,98665.97
2022-08-20T21:53:02.261Z,98669.53
2022-08-20T21:55:45.678Z,98671.69
2022-08-20T21:58:12.477Z,98677.03
2022-08-20T22:01:03.749Z,98674.78
2022-08-20T22:03:38.535Z,98671.34
2022-08-20T22:06:12.637Z,98675.78
2022-08-20T22:08:45.636Z,98667.75
2022-08-20T22:11:13.543Z,98663.03
2022-08-20T22:13:46.724Z,98657.66
2022-08-20T22:16:15.547Z,98660.22
2022-08-20T22:18:55.756Z,98658.22
2022-08-20T22:21:31.411Z,98651.84
2022-08-20T22:24:05.687Z,98647.31
2022-08-20T22:26:32.943Z,98642.84
2022-08-20T22:29:05.658Z,98648.06
2022-08-20T22:31:34.129Z,98651.38
2022-08-20T22:34:07.685Z,98643.31
2022-08-20T22:36:34.584Z,98636.09
2022-08-20T22:39:07.726Z,98634.44
2022-08-20T22:41:41.821Z,98631.75
2022-08-20T22:44:08.451Z,98636.69
2022-08-20T22:46:48.790Z,98633.63
2022-08-20T22:49:18.744Z,98630.34
2022-08-20T22:51:52.869Z,98626.19
2022-08-20T22:54:20.964Z,98626.97
2022-08-20T22:56:53.650Z,98626.13
2022-08-20T22:59:20.739Z,98623.00
2022-08-20T23:01:53.623Z,98621.38
2022-08-20T23:04:26.654Z,98616.38
2022-08-20T23:06:53.747Z,98618.25
2022-08-20T23:09:21.311Z,98609.66
2022-08-20T23:11:54.661Z,98616.44
2022-08-20T23:14:27.824Z,98616.91
2022-08-20T23:17:13.259Z,98615.28
2022-08-20T23:19:54.717Z,98612.44
2022-08-20T23:22:34.647Z,98600.66
2022-08-20T23:25:01.557Z,98603.41
2022-08-20T23:27:34.620Z,98596.25
2022-08-20T23:30:01.222Z,98599.59
2022-08-20T23:32:34.627Z,98595.06
2022-08-20T23:35:01.396Z,98593.00
2022-08-20T23:37:28.015Z,98595.53
2022-08-20T23:40:00.704Z,98595.53
2022-08-20T23:42:27.349Z,98591.78
2022-08-20T23:45:00.671Z,98591.75
2022-08-20T23:47:27.989Z,98589.63
2022-08-20T23:50:00.846Z,98595.19
2022-08-20T23:52:27.858Z,98590.47
2022-08-20T23:55:00.632Z,98590.03
2022-08-20T23:57:27.327Z,98592.72
